Latest Coastal Weather Observations for Warruwi

IDD60701

Issued at 12:31 am CST Friday 26 August 2016 (issued every 10 minutes, with the page automatically refreshed every 10 minutes)

About coastal observations | Map of coastal stations | Coastal observations for NT | Marine services | Other Formats
Station Details ID: 014401 Name: WARRUWI AIRPORT Lat: -11.65 Lon: 133.38 Height: 19.2 m
Data from the previous 72 hours. | See also: Recent months at Warruwi
Date/Time
CST
Temp
°C
Wind Pressure Rain since
9am
mm
Weather Cloud Vis
km
Sea
Height
m
Swell
Dir  Spd
kts
Gust
kts
hPa Trend Height
m
Period
s
Dir
26/12:30am 26.5 ENE 4 5 1012.9 - 0.0 - - - - - - -
26/12:00am 26.6 ENE 6 10 1013.0 - 0.0 - - - - - - -
 
Date/Time
CST
Temp
°C
Wind Pressure Rain since
9am
mm
Weather Cloud Vis
km
Sea
Height
m
Swell
Dir  Spd
kts
Gust
kts
hPa Trend Height
m
Period
s
Dir
25/11:30pm 26.1 ENE 3 5 1013.0 - 0.0 - - - - - - -
25/11:00pm 25.5 NNE 2 4 1012.5 - 0.0 - - - - - - -
25/10:30pm 25.5 CALM 0 0 1012.1 - 0.0 - - - - - - -
25/10:00pm 25.9 NE 1 2 1012.0 - 0.0 - - - - - - -
25/09:30pm 25.8 NE 2 3 1011.8 - 0.0 - - - - - - -
25/09:00pm 26.1 CALM 0 1 1011.4 - 0.0 - - - - - - -
25/08:30pm 26.2 NE 2 3 1011.2 - 0.0 - - - - - - -
25/08:00pm 26.4 NNE 2 4 1010.7 - 0.0 - - - - - - -
25/07:30pm 26.7 NNE 3 5 1010.3 - 0.0 - - - - - - -
25/07:00pm 26.9 N 3 6 1009.9 - 0.0 - - - - - - -
25/06:30pm 27.2 NNE 2 5 1009.5 - 0.0 - - - - - - -
25/06:00pm 27.7 NNW 5 9 1009.5 - 0.0 - - - - - - -
25/05:30pm 28.3 N 5 9 1009.2 - 0.0 - - - - - - -
25/05:00pm 28.9 NNW 5 9 1009.0 - 0.0 - - - - - - -
25/04:30pm 29.5 NNW 6 11 1008.6 - 0.0 - - - - - - -
25/04:00pm 29.8 N 6 9 1008.6 - 0.0 - - - - - - -
25/03:30pm 30.3 N 5 9 1008.8 - 0.0 - - - - - - -
25/03:00pm 30.0 N 6 11 1009.1 - 0.0 - - - - - - -
25/02:30pm 29.9 N 7 10 1009.3 - 0.0 - - - - - - -
25/02:00pm 30.6 N 6 10 1009.6 - 0.0 - - - - - - -
25/01:30pm 30.3 NE 4 6 1010.0 - 0.0 - - - - - - -
25/01:00pm 31.3 NNE 3 5 1010.3 - 0.0 - - - - - - -
25/12:30pm 30.1 NNW 3 6 1010.8 - 0.0 - - - - - - -
25/12:00pm 30.1 N 5 9 1011.2 - 0.0 - - - - - - -
25/11:30am 29.9 N 4 9 1011.5 - 0.0 - - - - - - -
25/11:00am 29.1 NW 4 9 1012.0 - 0.0 - - - - - - -
25/10:30am 28.7 WNW 6 10 1012.4 - 0.0 - - - - - - -
25/10:00am 28.0 NW 4 7 1012.6 - 0.0 - - - - - - -
25/09:30am 28.5 N 3 6 1012.7 - 0.0 - - - - - - -
25/09:00am 27.9 NNW 3 6 1012.4 - 0.0 - - - - - - -
25/08:30am 27.1 N 4 7 1012.1 - 0.0 - - - - - - -
25/08:00am 26.6 N 2 5 1011.8 - 0.0 - - - - - - -
25/07:30am 25.1 NE 1 2 1011.6 - 0.0 - - - - - - -
25/07:00am 24.1 NNE 1 2 1011.2 - 0.0 - - - - - - -
25/06:30am 24.1 CALM 0 0 1011.0 - 0.0 - - - - - - -
25/06:00am 24.1 NE 1 1 1010.8 - 0.0 - - - - - - -
25/05:30am 24.4 E 2 3 1010.5 - 0.0 - - - - - - -
25/05:00am 24.7 NNW 1 2 1010.1 - 0.0 - - - - - - -
25/04:30am 24.7 NW 2 3 1009.9 - 0.0 - - - - - - -
25/04:00am 24.7 NW 2 3 1010.0 - 0.0 - - - - - - -
25/03:30am 24.6 NW 2 3 1010.1 - 0.0 - - - - - - -
25/03:00am 24.6 NW 1 2 1010.1 - 0.0 - - - - - - -
25/02:30am 25.2 NW 2 4 1010.2 - 0.0 - - - - - - -
25/02:00am 25.5 WNW 3 5 1010.5 - 0.0 - - - - - - -
25/01:30am 25.5 NW 3 4 1010.7 - 0.0 - - - - - - -
25/01:00am 25.6 WNW 3 6 1010.9 - 0.0 - - - - - - -
25/12:30am 25.5 NW 2 4 - - 0.0 - - - - - - -
25/12:00am 25.3 NW 2 3 - - 0.0 - - - - - - -
 
Date/Time
CST
Temp
°C
Wind Pressure Rain since
9am
mm
Weather Cloud Vis
km
Sea
Height
m
Swell
Dir  Spd
kts
Gust
kts
hPa Trend Height
m
Period
s
Dir
24/11:30pm 25.4 WNW 1 2 - - 0.0 - - - - - - -
24/11:00pm 25.4 NW 1 3 - - 0.0 - - - - - - -
24/10:30pm 25.6 NW 2 3 - - 0.0 - - - - - - -
24/10:00pm 25.9 NNW 1 4 - - 0.0 - - - - - - -
24/09:30pm 26.0 NNW 2 5 - - 0.0 - - - - - - -
24/09:00pm 26.1 N 3 6 - - 0.0 - - - - - - -
24/08:30pm 26.2 N 3 7 - - 0.0 - - - - - - -
24/08:00pm 26.3 N 3 7 - - 0.0 - - - - - - -
24/07:30pm 26.3 N 4 8 - - 0.0 - - - - - - -
24/07:00pm 26.4 NNW 4 6 - - 0.0 - - - - - - -
24/06:30pm 26.6 NNW 5 9 - - 0.0 - - - - - - -
24/06:00pm 27.2 NNW 5 9 - - 0.0 - - - - - - -
24/05:30pm 27.7 NNW 6 11 - - 0.0 - - - - - - -
24/05:00pm 27.9 N 7 12 1007.8 - 0.0 - - - - - - -
24/04:30pm 28.3 N 8 13 1007.8 - 0.0 - - - - - - -
24/04:00pm 28.4 N 6 13 1007.8 - 0.0 - - - - - - -
24/03:30pm 28.4 NNW 9 14 1008.0 - 0.0 - - - - - - -
24/03:00pm 29.2 N 8 12 1008.0 - 0.0 - - - - - - -
24/02:30pm 30.3 N 6 12 1008.1 - 0.0 - - - - - - -
24/02:00pm 29.9 N 7 11 1008.7 - 0.0 - - - - - - -
24/01:30pm 29.9 NNW 6 9 1009.1 - 0.0 - - - - - - -
24/01:00pm 29.9 NNW 5 9 1009.3 - 0.0 - - - - - - -
24/12:30pm 30.3 NW 4 7 1010.0 - 0.0 - - - - - - -
24/12:00pm 29.9 W 6 11 1010.6 - 0.0 - - - - - - -
24/11:30am 29.6 W 6 8 1011.3 - 0.0 - - - - - - -
24/11:00am 28.3 W 5 8 1012.0 - 0.0 - - - - - - -
24/10:30am 28.3 WNW 5 8 1012.3 - 0.0 - - - - - - -
24/10:00am 27.7 WNW 5 9 1012.8 - 0.0 - - - - - - -
24/09:30am 27.2 W 6 8 1012.9 - 0.0 - - - - - - -
24/09:00am 26.7 WNW 6 8 1012.8 - 0.0 - - - - - - -
24/08:30am 26.7 W 5 8 1012.5 - 0.0 - - - - - - -
24/08:00am 26.1 WNW 4 6 1012.2 - 0.0 - - - - - - -
24/07:30am 24.6 WNW 2 3 1011.8 - 0.0 - - - - - - -
24/07:00am 23.2 WNW 1 2 1011.6 - 0.0 - - - - - - -
24/06:30am 23.1 NW 2 3 1011.1 - 0.0 - - - - - - -
24/06:00am 23.3 NW 2 3 1010.8 - 0.0 - - - - - - -
24/05:30am 23.6 NW 2 3 1010.7 - 0.0 - - - - - - -
24/05:00am 24.0 WNW 2 2 1010.5 - 0.0 - - - - - - -
24/04:30am 24.4 WNW 2 3 1010.4 - 0.0 - - - - - - -
24/04:00am 24.5 WNW 2 3 1010.4 - 0.0 - - - - - - -
24/03:30am 24.7 WNW 3 5 1010.5 - 0.0 - - - - - - -
24/03:00am 24.8 NW 2 3 1010.3 - 0.0 - - - - - - -
24/02:30am 24.7 NW 2 3 1010.4 - 0.0 - - - - - - -
24/02:00am 24.4 NW 2 3 1010.4 - 0.0 - - - - - - -
24/01:30am 24.6 WNW 2 3 1010.2 - 0.0 - - - - - - -
24/01:00am 24.7 NW 2 3 1010.5 - 0.0 - - - - - - -
24/12:30am 24.8 NW 2 4 1010.6 - 0.0 - - - - - - -
24/12:00am 24.8 WNW 2 3 1010.6 - 0.0 - - - - - - -
 
Date/Time
CST
Temp
°C
Wind Pressure Rain since
9am
mm
Weather Cloud Vis
km
Sea
Height
m
Swell
Dir  Spd
kts
Gust
kts
hPa Trend Height
m
Period
s
Dir
23/11:30pm 24.9 NW 2 4 1010.4 - 0.0 - - - - - - -
23/11:00pm 24.9 NW 2 3 1010.4 - 0.0 - - - - - - -
23/10:30pm 25.1 NNW 2 6 1010.3 - 0.0 - - - - - - -
23/10:00pm 25.1 NNW 2 5 1010.2 - 0.0 - - - - - - -
23/09:30pm 25.3 NNW 3 5 1010.1 - 0.0 - - - - - - -
23/09:00pm 25.4 N 3 7 1010.0 - 0.0 - - - - - - -
23/08:30pm 25.6 N 4 8 1009.8 - 0.0 - - - - - - -
23/08:00pm 25.6 N 4 8 1009.7 - 0.0 - - - - - - -
23/07:30pm 25.7 N 4 7 1009.2 - 0.0 - - - - - - -
23/07:00pm 25.9 N 5 7 1008.8 - 0.0 - - - - - - -
23/06:30pm 26.3 N 5 9 1008.4 - 0.0 - - - - - - -
23/06:00pm 26.8 N 6 9 1008.1 - 0.0 - - - - - - -
23/05:30pm 27.3 N 6 11 1007.7 - 0.0 - - - - - - -
23/05:00pm 27.9 NNW 7 11 1007.3 - 0.0 - - - - - - -
23/04:30pm 28.8 N 6 9 1007.1 - 0.0 - - - - - - -
23/04:00pm 29.2 N 6 11 1006.9 - 0.0 - - - - - - -
23/03:30pm 29.1 NNE 7 10 1007.2 - 0.0 - - - - - - -
23/03:00pm 28.9 N 5 11 1007.6 - 0.0 - - - - - - -
23/02:30pm 29.3 N 6 10 1008.0 - 0.0 - - - - - - -
23/02:00pm 29.1 N 6 9 1008.5 - 0.0 - - - - - - -
23/01:30pm 29.2 N 5 9 1009.0 - 0.0 - - - - - - -
23/01:00pm 29.1 NE 5 8 1009.3 - 0.0 - - - - - - -
23/12:30pm 28.1 E 3 5 1009.9 - 0.0 - - - - - - -
23/12:00pm 27.9 W 2 4 1010.7 - 0.0 - - - - - - -
23/11:30am 26.5 WSW 5 8 1011.2 - 0.0 - - - - - - -
23/11:00am 26.6 S 5 7 1011.5 - 0.0 - - - - - - -
23/10:30am 27.6 SSE 4 6 1011.8 - 0.0 - - - - - - -
23/10:00am 27.3 NNW 2 4 1011.8 - 0.0 - - - - - - -
23/09:30am 26.4 WNW 1 3 1011.8 - 0.0 - - - - - - -
23/09:00am 25.2 CALM 0 1 1011.9 - 0.0 - - - - - - -
23/08:30am 24.6 WSW 2 2 1011.8 - 0.0 - - - - - - -
23/08:00am 24.5 SSW 1 2 1011.4 - 0.0 - - - - - - -
23/07:30am 24.1 SSW 2 3 1011.3 - 0.0 - - - - - - -
23/07:00am 22.5 CALM 0 0 1011.0 - 0.0 - - - - - - -
23/06:30am 22.4 CALM 0 0 1010.7 - 0.0 - - - - - - -
23/06:00am 22.4 CALM 0 0 1010.5 - 0.0 - - - - - - -
23/05:30am 22.6 CALM 0 0 1010.3 - 0.0 - - - - - - -
23/05:00am 22.9 CALM 0 0 1010.1 - 0.0 - - - - - - -
23/04:30am 23.1 CALM 0 0 1010.1 - 0.0 - - - - - - -
23/04:00am 22.9 NW 1 1 1009.9 - 0.0 - - - - - - -
23/03:30am 22.8 CALM 0 0 1009.9 - 0.0 - - - - - - -
23/03:00am 22.9 CALM 0 0 1009.9 - 0.0 - - - - - - -
23/02:30am 23.1 CALM 0 0 1010.0 - 0.0 - - - - - - -
23/02:00am 23.3 CALM 0 0 1010.1 - 0.0 - - - - - - -
23/01:30am 23.5 CALM 0 1 1010.3 - 0.0 - - - - - - -
23/01:00am 23.6 CALM 0 0 1010.6 - 0.0 - - - - - - -

Other Formats:

Comma delimited format used in spreadsheet applications
http://www.bom.gov.au/fwo/IDD60701/IDD60701.94139.axf

JavaScript Object Notation format (JSON) in row-major order
http://www.bom.gov.au/fwo/IDD60701/IDD60701.94139.json